sensor_id;sensor_type;location;lat;lon;timestamp;P1;durP1;ratioP1;P2;durP2;ratioP2
37885;SDS011;23726;52.520;13.434;2022-08-19T00:00:05;12.88;;;11.65;;
37885;SDS011;23726;52.520;13.434;2022-08-19T00:02:33;13.25;;;11.85;;
37885;SDS011;23726;52.520;13.434;2022-08-19T00:05:00;14.35;;;11.98;;
37885;SDS011;23726;52.520;13.434;2022-08-19T00:07:26;13.18;;;11.55;;
37885;SDS011;23726;52.520;13.434;2022-08-19T00:09:51;12.48;;;11.18;;
37885;SDS011;23726;52.520;13.434;2022-08-19T00:12:17;12.90;;;11.52;;
37885;SDS011;23726;52.520;13.434;2022-08-19T00:14:42;12.88;;;11.57;;
37885;SDS011;23726;52.520;13.434;2022-08-19T00:17:08;13.27;;;11.82;;
37885;SDS011;23726;52.520;13.434;2022-08-19T00:19:34;12.32;;;11.13;;
37885;SDS011;23726;52.520;13.434;2022-08-19T00:22:01;15.10;;;12.38;;
37885;SDS011;23726;52.520;13.434;2022-08-19T00:24:27;12.30;;;11.00;;
37885;SDS011;23726;52.520;13.434;2022-08-19T00:26:53;13.23;;;11.77;;
37885;SDS011;23726;52.520;13.434;2022-08-19T00:29:20;13.25;;;11.88;;
37885;SDS011;23726;52.520;13.434;2022-08-19T00:31:46;12.77;;;11.48;;
37885;SDS011;23726;52.520;13.434;2022-08-19T00:34:13;12.82;;;11.48;;
37885;SDS011;23726;52.520;13.434;2022-08-19T00:36:39;14.05;;;11.68;;
37885;SDS011;23726;52.520;13.434;2022-08-19T00:39:06;12.73;;;11.52;;
37885;SDS011;23726;52.520;13.434;2022-08-19T00:41:32;12.57;;;11.27;;
37885;SDS011;23726;52.520;13.434;2022-08-19T00:44:06;12.63;;;11.32;;
37885;SDS011;23726;52.520;13.434;2022-08-19T00:46:32;12.95;;;11.65;;
37885;SDS011;23726;52.520;13.434;2022-08-19T00:49:02;13.05;;;11.38;;
37885;SDS011;23726;52.520;13.434;2022-08-19T00:51:33;13.52;;;12.13;;
37885;SDS011;23726;52.520;13.434;2022-08-19T00:53:59;12.68;;;11.38;;
37885;SDS011;23726;52.520;13.434;2022-08-19T00:56:26;12.05;;;10.82;;
37885;SDS011;23726;52.520;13.434;2022-08-19T00:58:53;14.80;;;12.00;;
37885;SDS011;23726;52.520;13.434;2022-08-19T01:01:21;13.27;;;11.98;;
37885;SDS011;23726;52.520;13.434;2022-08-19T01:03:47;12.93;;;11.63;;
37885;SDS011;23726;52.520;13.434;2022-08-19T01:06:12;12.13;;;10.93;;
37885;SDS011;23726;52.520;13.434;2022-08-19T01:08:38;13.10;;;11.63;;
37885;SDS011;23726;52.520;13.434;2022-08-19T01:11:03;15.07;;;12.10;;
37885;SDS011;23726;52.520;13.434;2022-08-19T01:13:30;13.05;;;11.75;;
37885;SDS011;23726;52.520;13.434;2022-08-19T01:16:01;17.23;;;12.10;;
37885;SDS011;23726;52.520;13.434;2022-08-19T01:18:29;13.13;;;11.75;;
37885;SDS011;23726;52.520;13.434;2022-08-19T01:20:58;12.88;;;11.45;;
37885;SDS011;23726;52.520;13.434;2022-08-19T01:23:28;13.77;;;11.82;;
37885;SDS011;23726;52.520;13.434;2022-08-19T01:26:07;13.65;;;11.52;;
37885;SDS011;23726;52.520;13.434;2022-08-19T01:28:38;12.32;;;11.10;;
37885;SDS011;23726;52.520;13.434;2022-08-19T01:31:06;13.13;;;11.75;;
37885;SDS011;23726;52.520;13.434;2022-08-19T01:33:35;13.82;;;12.35;;
37885;SDS011;23726;52.520;13.434;2022-08-19T01:36:05;13.75;;;12.35;;
37885;SDS011;23726;52.520;13.434;2022-08-19T01:38:35;13.18;;;11.70;;
37885;SDS011;23726;52.520;13.434;2022-08-19T01:41:02;14.40;;;12.20;;
37885;SDS011;23726;52.520;13.434;2022-08-19T01:43:28;12.82;;;11.30;;
37885;SDS011;23726;52.520;13.434;2022-08-19T01:45:54;16.58;;;11.77;;
37885;SDS011;23726;52.520;13.434;2022-08-19T01:48:19;13.23;;;11.82;;
37885;SDS011;23726;52.520;13.434;2022-08-19T01:50:45;13.70;;;11.75;;
37885;SDS011;23726;52.520;13.434;2022-08-19T01:53:12;13.27;;;11.63;;
37885;SDS011;23726;52.520;13.434;2022-08-19T01:55:39;13.02;;;11.73;;
37885;SDS011;23726;52.520;13.434;2022-08-19T01:58:05;13.82;;;11.52;;
37885;SDS011;23726;52.520;13.434;2022-08-19T02:00:43;14.18;;;12.70;;
37885;SDS011;23726;52.520;13.434;2022-08-19T02:03:10;14.57;;;12.73;;
37885;SDS011;23726;52.520;13.434;2022-08-19T02:05:36;19.05;;;12.40;;
37885;SDS011;23726;52.520;13.434;2022-08-19T02:08:02;13.50;;;12.10;;
37885;SDS011;23726;52.520;13.434;2022-08-19T02:10:28;13.18;;;11.50;;
37885;SDS011;23726;52.520;13.434;2022-08-19T02:12:54;14.45;;;11.95;;
37885;SDS011;23726;52.520;13.434;2022-08-19T02:15:19;13.38;;;11.85;;
37885;SDS011;23726;52.520;13.434;2022-08-19T02:17:45;13.07;;;11.15;;
37885;SDS011;23726;52.520;13.434;2022-08-19T02:20:13;12.50;;;11.27;;
37885;SDS011;23726;52.520;13.434;2022-08-19T02:22:39;13.85;;;11.45;;
37885;SDS011;23726;52.520;13.434;2022-08-19T02:25:09;13.38;;;10.48;;
37885;SDS011;23726;52.520;13.434;2022-08-19T02:27:36;14.98;;;11.48;;
37885;SDS011;23726;52.520;13.434;2022-08-19T02:30:02;12.73;;;11.43;;
37885;SDS011;23726;52.520;13.434;2022-08-19T02:32:28;13.13;;;11.70;;
37885;SDS011;23726;52.520;13.434;2022-08-19T02:34:55;13.45;;;12.05;;
37885;SDS011;23726;52.520;13.434;2022-08-19T02:37:21;13.32;;;11.93;;
37885;SDS011;23726;52.520;13.434;2022-08-19T02:40:06;13.13;;;11.77;;
37885;SDS011;23726;52.520;13.434;2022-08-19T02:42:32;13.18;;;11.57;;
37885;SDS011;23726;52.520;13.434;2022-08-19T02:44:58;16.45;;;11.85;;
37885;SDS011;23726;52.520;13.434;2022-08-19T02:47:25;13.35;;;11.40;;
37885;SDS011;23726;52.520;13.434;2022-08-19T02:49:50;15.48;;;11.30;;
37885;SDS011;23726;52.520;13.434;2022-08-19T02:52:16;14.93;;;11.68;;
37885;SDS011;23726;52.520;13.434;2022-08-19T02:54:42;12.75;;;11.05;;
37885;SDS011;23726;52.520;13.434;2022-08-19T02:57:08;12.57;;;11.20;;
37885;SDS011;23726;52.520;13.434;2022-08-19T02:59:34;12.52;;;10.93;;
37885;SDS011;23726;52.520;13.434;2022-08-19T03:02:00;12.90;;;11.60;;
37885;SDS011;23726;52.520;13.434;2022-08-19T03:04:25;11.50;;;10.30;;
37885;SDS011;23726;52.520;13.434;2022-08-19T03:06:51;12.50;;;10.55;;
37885;SDS011;23726;52.520;13.434;2022-08-19T03:09:17;12.30;;;10.82;;
37885;SDS011;23726;52.520;13.434;2022-08-19T03:11:44;12.75;;;11.43;;
37885;SDS011;23726;52.520;13.434;2022-08-19T03:14:10;12.80;;;11.30;;
37885;SDS011;23726;52.520;13.434;2022-08-19T03:16:43;11.52;;;10.43;;
37885;SDS011;23726;52.520;13.434;2022-08-19T03:19:17;11.52;;;10.32;;
37885;SDS011;23726;52.520;13.434;2022-08-19T03:21:45;13.15;;;11.10;;
37885;SDS011;23726;52.520;13.434;2022-08-19T03:24:11;11.13;;;10.02;;
37885;SDS011;23726;52.520;13.434;2022-08-19T03:26:40;11.52;;;10.35;;
37885;SDS011;23726;52.520;13.434;2022-08-19T03:29:08;11.75;;;10.55;;
37885;SDS011;23726;52.520;13.434;2022-08-19T03:31:35;11.43;;;10.32;;
37885;SDS011;23726;52.520;13.434;2022-08-19T03:34:01;11.65;;;10.43;;
37885;SDS011;23726;52.520;13.434;2022-08-19T03:36:27;12.85;;;10.70;;
37885;SDS011;23726;52.520;13.434;2022-08-19T03:38:53;13.20;;;10.77;;
37885;SDS011;23726;52.520;13.434;2022-08-19T03:41:27;13.25;;;10.77;;
37885;SDS011;23726;52.520;13.434;2022-08-19T03:43:56;12.23;;;10.90;;
37885;SDS011;23726;52.520;13.434;2022-08-19T03:46:23;12.07;;;10.15;;
37885;SDS011;23726;52.520;13.434;2022-08-19T03:48:52;11.60;;;10.50;;
37885;SDS011;23726;52.520;13.434;2022-08-19T03:51:21;11.65;;;10.45;;
37885;SDS011;23726;52.520;13.434;2022-08-19T03:53:52;11.57;;;10.45;;
37885;SDS011;23726;52.520;13.434;2022-08-19T03:56:18;13.70;;;10.98;;
37885;SDS011;23726;52.520;13.434;2022-08-19T03:58:44;12.65;;;11.38;;
37885;SDS011;23726;52.520;13.434;2022-08-19T04:01:11;12.50;;;11.20;;
37885;SDS011;23726;52.520;13.434;2022-08-19T04:03:40;11.43;;;10.23;;
37885;SDS011;23726;52.520;13.434;2022-08-19T04:06:13;12.18;;;10.60;;
37885;SDS011;23726;52.520;13.434;2022-08-19T04:08:41;12.10;;;10.90;;
37885;SDS011;23726;52.520;13.434;2022-08-19T04:11:11;12.05;;;10.85;;
37885;SDS011;23726;52.520;13.434;2022-08-19T04:13:38;12.30;;;11.00;;
37885;SDS011;23726;52.520;13.434;2022-08-19T04:16:04;12.07;;;10.88;;
37885;SDS011;23726;52.520;13.434;2022-08-19T04:18:31;11.25;;;10.13;;
37885;SDS011;23726;52.520;13.434;2022-08-19T04:20:58;12.48;;;11.18;;
37885;SDS011;23726;52.520;13.434;2022-08-19T04:23:24;11.70;;;10.60;;
37885;SDS011;23726;52.520;13.434;2022-08-19T04:25:53;12.35;;;10.90;;
37885;SDS011;23726;52.520;13.434;2022-08-19T04:28:20;11.70;;;10.48;;
37885;SDS011;23726;52.520;13.434;2022-08-19T04:30:48;11.73;;;10.40;;
37885;SDS011;23726;52.520;13.434;2022-08-19T04:33:16;15.27;;;11.20;;
37885;SDS011;23726;52.520;13.434;2022-08-19T04:35:46;12.25;;;10.30;;
37885;SDS011;23726;52.520;13.434;2022-08-19T04:38:13;11.15;;;9.98;;
37885;SDS011;23726;52.520;13.434;2022-08-19T04:40:43;12.63;;;11.35;;
37885;SDS011;23726;52.520;13.434;2022-08-19T04:43:34;12.75;;;11.23;;
37885;SDS011;23726;52.520;13.434;2022-08-19T04:46:04;14.90;;;11.98;;
37885;SDS011;23726;52.520;13.434;2022-08-19T04:48:35;12.57;;;11.30;;
37885;SDS011;23726;52.520;13.434;2022-08-19T04:51:01;13.52;;;11.10;;
37885;SDS011;23726;52.520;13.434;2022-08-19T04:53:32;15.43;;;11.52;;
37885;SDS011;23726;52.520;13.434;2022-08-19T04:56:03;14.15;;;11.60;;
37885;SDS011;23726;52.520;13.434;2022-08-19T04:58:33;12.95;;;11.65;;
37885;SDS011;23726;52.520;13.434;2022-08-19T05:00:59;13.27;;;11.35;;
37885;SDS011;23726;52.520;13.434;2022-08-19T05:03:25;12.70;;;11.40;;
37885;SDS011;23726;52.520;13.434;2022-08-19T05:05:51;12.25;;;11.10;;
37885;SDS011;23726;52.520;13.434;2022-08-19T05:08:18;13.38;;;11.35;;
37885;SDS011;23726;52.520;13.434;2022-08-19T05:10:47;13.27;;;11.80;;
37885;SDS011;23726;52.520;13.434;2022-08-19T05:13:14;12.65;;;11.25;;
37885;SDS011;23726;52.520;13.434;2022-08-19T05:15:42;14.10;;;11.55;;
37885;SDS011;23726;52.520;13.434;2022-08-19T05:18:08;12.80;;;11.50;;
37885;SDS011;23726;52.520;13.434;2022-08-19T05:20:53;14.45;;;12.70;;
37885;SDS011;23726;52.520;13.434;2022-08-19T05:23:37;15.00;;;12.05;;
37885;SDS011;23726;52.520;13.434;2022-08-19T05:26:03;13.27;;;11.90;;
37885;SDS011;23726;52.520;13.434;2022-08-19T05:28:29;13.60;;;11.85;;
37885;SDS011;23726;52.520;13.434;2022-08-19T05:30:55;13.18;;;11.57;;
37885;SDS011;23726;52.520;13.434;2022-08-19T05:33:21;13.63;;;11.95;;
37885;SDS011;23726;52.520;13.434;2022-08-19T05:35:47;13.32;;;11.93;;
37885;SDS011;23726;52.520;13.434;2022-08-19T05:38:14;14.70;;;12.02;;
37885;SDS011;23726;52.520;13.434;2022-08-19T05:40:43;12.93;;;11.68;;
37885;SDS011;23726;52.520;13.434;2022-08-19T05:43:12;13.48;;;12.07;;
37885;SDS011;23726;52.520;13.434;2022-08-19T05:45:40;12.70;;;11.43;;
37885;SDS011;23726;52.520;13.434;2022-08-19T05:48:06;14.73;;;12.18;;
37885;SDS011;23726;52.520;13.434;2022-08-19T05:50:36;13.73;;;12.20;;
37885;SDS011;23726;52.520;13.434;2022-08-19T05:53:05;13.85;;;11.75;;
37885;SDS011;23726;52.520;13.434;2022-08-19T05:55:33;13.07;;;11.48;;
37885;SDS011;23726;52.520;13.434;2022-08-19T05:57:59;13.68;;;11.88;;
37885;SDS011;23726;52.520;13.434;2022-08-19T06:00:26;14.15;;;11.85;;
37885;SDS011;23726;52.520;13.434;2022-08-19T06:02:53;13.65;;;12.25;;
37885;SDS011;23726;52.520;13.434;2022-08-19T06:05:21;13.15;;;11.80;;
37885;SDS011;23726;52.520;13.434;2022-08-19T06:07:47;13.10;;;11.77;;
37885;SDS011;23726;52.520;13.434;2022-08-19T06:10:12;17.25;;;13.10;;
37885;SDS011;23726;52.520;13.434;2022-08-19T06:12:38;15.30;;;12.95;;
37885;SDS011;23726;52.520;13.434;2022-08-19T06:15:05;16.17;;;14.15;;
37885;SDS011;23726;52.520;13.434;2022-08-19T06:17:37;15.90;;;14.30;;
37885;SDS011;23726;52.520;13.434;2022-08-19T06:20:04;15.75;;;13.23;;
37885;SDS011;23726;52.520;13.434;2022-08-19T06:22:31;16.35;;;13.90;;
37885;SDS011;23726;52.520;13.434;2022-08-19T06:25:02;16.88;;;15.18;;
37885;SDS011;23726;52.520;13.434;2022-08-19T06:27:28;16.00;;;13.57;;
37885;SDS011;23726;52.520;13.434;2022-08-19T06:29:57;15.75;;;13.85;;
37885;SDS011;23726;52.520;13.434;2022-08-19T06:32:22;16.15;;;14.07;;
37885;SDS011;23726;52.520;13.434;2022-08-19T06:34:48;15.93;;;14.18;;
37885;SDS011;23726;52.520;13.434;2022-08-19T06:37:14;16.10;;;13.82;;
37885;SDS011;23726;52.520;13.434;2022-08-19T06:39:41;16.00;;;13.40;;
37885;SDS011;23726;52.520;13.434;2022-08-19T06:42:08;14.60;;;12.95;;
37885;SDS011;23726;52.520;13.434;2022-08-19T06:44:38;15.55;;;13.52;;
37885;SDS011;23726;52.520;13.434;2022-08-19T06:47:06;14.50;;;12.98;;
37885;SDS011;23726;52.520;13.434;2022-08-19T06:49:34;14.45;;;12.95;;
37885;SDS011;23726;52.520;13.434;2022-08-19T06:52:01;15.27;;;13.77;;
37885;SDS011;23726;52.520;13.434;2022-08-19T06:54:27;15.55;;;13.82;;
37885;SDS011;23726;52.520;13.434;2022-08-19T06:56:54;15.55;;;13.88;;
37885;SDS011;23726;52.520;13.434;2022-08-19T06:59:22;15.68;;;13.80;;
37885;SDS011;23726;52.520;13.434;2022-08-19T07:01:52;16.70;;;13.95;;
37885;SDS011;23726;52.520;13.434;2022-08-19T07:04:26;15.88;;;14.27;;
37885;SDS011;23726;52.520;13.434;2022-08-19T07:07:01;15.00;;;13.45;;
37885;SDS011;23726;52.520;13.434;2022-08-19T07:09:33;15.38;;;13.70;;
37885;SDS011;23726;52.520;13.434;2022-08-19T07:12:02;15.98;;;14.18;;
37885;SDS011;23726;52.520;13.434;2022-08-19T07:14:29;15.43;;;13.77;;
37885;SDS011;23726;52.520;13.434;2022-08-19T07:16:55;15.48;;;13.88;;
37885;SDS011;23726;52.520;13.434;2022-08-19T07:19:22;15.57;;;13.98;;
37885;SDS011;23726;52.520;13.434;2022-08-19T07:21:52;15.70;;;14.00;;
37885;SDS011;23726;52.520;13.434;2022-08-19T07:24:19;16.02;;;14.30;;
37885;SDS011;23726;52.520;13.434;2022-08-19T07:26:46;15.98;;;14.30;;
37885;SDS011;23726;52.520;13.434;2022-08-19T07:29:12;14.48;;;13.02;;
37885;SDS011;23726;52.520;13.434;2022-08-19T07:31:37;15.45;;;13.95;;
37885;SDS011;23726;52.520;13.434;2022-08-19T07:34:04;15.43;;;13.70;;
37885;SDS011;23726;52.520;13.434;2022-08-19T07:36:32;15.18;;;13.68;;
37885;SDS011;23726;52.520;13.434;2022-08-19T07:39:01;17.30;;;15.07;;
37885;SDS011;23726;52.520;13.434;2022-08-19T07:41:32;15.48;;;13.88;;
37885;SDS011;23726;52.520;13.434;2022-08-19T07:44:00;18.40;;;14.65;;
37885;SDS011;23726;52.520;13.434;2022-08-19T07:46:32;16.45;;;14.85;;
37885;SDS011;23726;52.520;13.434;2022-08-19T07:48:58;19.08;;;15.18;;
37885;SDS011;23726;52.520;13.434;2022-08-19T07:51:25;16.42;;;14.65;;
37885;SDS011;23726;52.520;13.434;2022-08-19T07:53:51;18.63;;;15.05;;
37885;SDS011;23726;52.520;13.434;2022-08-19T07:56:18;16.42;;;14.73;;
37885;SDS011;23726;52.520;13.434;2022-08-19T07:58:47;16.77;;;15.07;;
37885;SDS011;23726;52.520;13.434;2022-08-19T08:01:16;17.67;;;14.57;;
37885;SDS011;23726;52.520;13.434;2022-08-19T08:03:43;17.08;;;15.30;;
37885;SDS011;23726;52.520;13.434;2022-08-19T08:06:29;16.90;;;15.20;;
37885;SDS011;23726;52.520;13.434;2022-08-19T08:09:15;20.85;;;15.25;;
37885;SDS011;23726;52.520;13.434;2022-08-19T08:11:54;17.48;;;15.68;;
37885;SDS011;23726;52.520;13.434;2022-08-19T08:14:27;17.20;;;15.40;;
37885;SDS011;23726;52.520;13.434;2022-08-19T08:16:55;17.70;;;15.43;;
37885;SDS011;23726;52.520;13.434;2022-08-19T08:19:22;18.35;;;16.35;;
37885;SDS011;23726;52.520;13.434;2022-08-19T08:21:49;17.88;;;15.95;;
37885;SDS011;23726;52.520;13.434;2022-08-19T08:24:15;17.58;;;15.80;;
37885;SDS011;23726;52.520;13.434;2022-08-19T08:26:41;18.50;;;16.70;;
37885;SDS011;23726;52.520;13.434;2022-08-19T08:29:08;18.45;;;15.90;;
37885;SDS011;23726;52.520;13.434;2022-08-19T08:31:36;18.48;;;16.10;;
37885;SDS011;23726;52.520;13.434;2022-08-19T08:34:02;18.33;;;16.48;;
37885;SDS011;23726;52.520;13.434;2022-08-19T08:36:27;18.45;;;16.48;;
37885;SDS011;23726;52.520;13.434;2022-08-19T08:38:53;18.55;;;16.30;;
37885;SDS011;23726;52.520;13.434;2022-08-19T08:44:17;19.60;;;16.73;;
37885;SDS011;23726;52.520;13.434;2022-08-19T08:46:53;18.02;;;16.25;;
37885;SDS011;23726;52.520;13.434;2022-08-19T08:49:27;18.70;;;16.80;;
37885;SDS011;23726;52.520;13.434;2022-08-19T08:51:59;20.88;;;18.63;;
37885;SDS011;23726;52.520;13.434;2022-08-19T08:54:32;19.95;;;17.90;;
37885;SDS011;23726;52.520;13.434;2022-08-19T08:57:03;19.85;;;17.95;;
37885;SDS011;23726;52.520;13.434;2022-08-19T08:59:34;19.08;;;17.17;;
37885;SDS011;23726;52.520;13.434;2022-08-19T09:02:03;21.23;;;18.23;;
37885;SDS011;23726;52.520;13.434;2022-08-19T09:04:29;20.45;;;18.30;;
37885;SDS011;23726;52.520;13.434;2022-08-19T09:07:00;20.92;;;18.17;;
37885;SDS011;23726;52.520;13.434;2022-08-19T09:14:42;20.33;;;18.25;;
37885;SDS011;23726;52.520;13.434;2022-08-19T09:17:27;20.33;;;18.33;;
37885;SDS011;23726;52.520;13.434;2022-08-19T09:22:47;20.70;;;18.58;;
37885;SDS011;23726;52.520;13.434;2022-08-19T09:25:15;19.98;;;18.05;;
37885;SDS011;23726;52.520;13.434;2022-08-19T09:27:43;20.75;;;18.65;;
37885;SDS011;23726;52.520;13.434;2022-08-19T09:30:14;20.85;;;18.65;;
37885;SDS011;23726;52.520;13.434;2022-08-19T09:32:46;22.08;;;18.40;;
37885;SDS011;23726;52.520;13.434;2022-08-19T09:35:13;21.17;;;18.77;;
37885;SDS011;23726;52.520;13.434;2022-08-19T09:37:39;21.33;;;19.13;;
37885;SDS011;23726;52.520;13.434;2022-08-19T09:40:06;20.45;;;18.35;;
37885;SDS011;23726;52.520;13.434;2022-08-19T09:42:32;20.92;;;18.73;;
37885;SDS011;23726;52.520;13.434;2022-08-19T09:44:58;20.75;;;18.70;;
37885;SDS011;23726;52.520;13.434;2022-08-19T09:47:24;20.55;;;18.45;;
37885;SDS011;23726;52.520;13.434;2022-08-19T09:49:50;20.85;;;18.70;;
37885;SDS011;23726;52.520;13.434;2022-08-19T09:52:15;20.65;;;18.23;;
37885;SDS011;23726;52.520;13.434;2022-08-19T09:54:41;20.58;;;18.40;;
37885;SDS011;23726;52.520;13.434;2022-08-19T09:57:07;19.60;;;17.60;;
37885;SDS011;23726;52.520;13.434;2022-08-19T09:59:32;18.75;;;16.88;;
37885;SDS011;23726;52.520;13.434;2022-08-19T10:01:59;21.98;;;17.67;;
37885;SDS011;23726;52.520;13.434;2022-08-19T10:04:24;21.98;;;18.30;;
37885;SDS011;23726;52.520;13.434;2022-08-19T10:07:10;20.33;;;18.15;;
37885;SDS011;23726;52.520;13.434;2022-08-19T10:09:35;23.30;;;18.65;;
37885;SDS011;23726;52.520;13.434;2022-08-19T10:12:02;21.85;;;18.10;;
37885;SDS011;23726;52.520;13.434;2022-08-19T10:14:29;20.65;;;18.17;;
37885;SDS011;23726;52.520;13.434;2022-08-19T10:16:55;20.48;;;18.15;;
37885;SDS011;23726;52.520;13.434;2022-08-19T10:19:21;22.98;;;19.83;;
37885;SDS011;23726;52.520;13.434;2022-08-19T10:21:47;20.40;;;17.95;;
37885;SDS011;23726;52.520;13.434;2022-08-19T10:24:12;22.17;;;19.42;;
37885;SDS011;23726;52.520;13.434;2022-08-19T10:26:38;26.05;;;21.70;;
37885;SDS011;23726;52.520;13.434;2022-08-19T10:29:06;27.73;;;22.65;;
37885;SDS011;23726;52.520;13.434;2022-08-19T10:31:33;37.60;;;26.65;;
37885;SDS011;23726;52.520;13.434;2022-08-19T10:33:59;52.45;;;34.28;;
37885;SDS011;23726;52.520;13.434;2022-08-19T10:36:30;67.38;;;42.22;;
37885;SDS011;23726;52.520;13.434;2022-08-19T10:39:00;83.28;;;45.42;;
37885;SDS011;23726;52.520;13.434;2022-08-19T10:41:30;61.97;;;36.35;;
37885;SDS011;23726;52.520;13.434;2022-08-19T10:43:58;64.88;;;38.90;;
37885;SDS011;23726;52.520;13.434;2022-08-19T10:46:26;55.78;;;37.25;;
37885;SDS011;23726;52.520;13.434;2022-08-19T10:48:53;60.28;;;34.35;;
37885;SDS011;23726;52.520;13.434;2022-08-19T10:51:19;45.72;;;29.02;;
37885;SDS011;23726;52.520;13.434;2022-08-19T10:54:04;46.47;;;31.73;;
37885;SDS011;23726;52.520;13.434;2022-08-19T10:56:30;36.60;;;24.00;;
37885;SDS011;23726;52.520;13.434;2022-08-19T10:59:15;28.55;;;22.60;;
37885;SDS011;23726;52.520;13.434;2022-08-19T11:01:52;29.98;;;21.67;;
37885;SDS011;23726;52.520;13.434;2022-08-19T11:04:23;31.17;;;23.17;;
37885;SDS011;23726;52.520;13.434;2022-08-19T11:06:48;33.15;;;23.90;;
37885;SDS011;23726;52.520;13.434;2022-08-19T11:09:15;31.17;;;23.08;;
37885;SDS011;23726;52.520;13.434;2022-08-19T11:11:42;31.52;;;23.42;;
37885;SDS011;23726;52.520;13.434;2022-08-19T11:14:09;27.80;;;22.02;;
37885;SDS011;23726;52.520;13.434;2022-08-19T11:16:36;29.60;;;22.63;;
37885;SDS011;23726;52.520;13.434;2022-08-19T11:19:04;26.52;;;20.73;;
37885;SDS011;23726;52.520;13.434;2022-08-19T11:21:33;25.50;;;20.90;;
37885;SDS011;23726;52.520;13.434;2022-08-19T11:24:01;24.88;;;20.30;;
37885;SDS011;23726;52.520;13.434;2022-08-19T11:26:30;23.65;;;19.40;;
37885;SDS011;23726;52.520;13.434;2022-08-19T11:28:58;26.02;;;20.80;;
37885;SDS011;23726;52.520;13.434;2022-08-19T11:31:26;24.20;;;20.23;;
37885;SDS011;23726;52.520;13.434;2022-08-19T11:33:56;23.10;;;20.15;;
37885;SDS011;23726;52.520;13.434;2022-08-19T11:36:24;24.58;;;20.15;;
37885;SDS011;23726;52.520;13.434;2022-08-19T11:38:51;28.52;;;18.67;;
37885;SDS011;23726;52.520;13.434;2022-08-19T11:41:17;22.27;;;18.50;;
37885;SDS011;23726;52.520;13.434;2022-08-19T11:43:44;20.73;;;16.42;;
37885;SDS011;23726;52.520;13.434;2022-08-19T11:46:11;19.55;;;16.27;;
37885;SDS011;23726;52.520;13.434;2022-08-19T11:48:39;18.33;;;15.65;;
37885;SDS011;23726;52.520;13.434;2022-08-19T11:51:06;18.17;;;15.85;;
37885;SDS011;23726;52.520;13.434;2022-08-19T11:53:40;17.52;;;15.70;;
37885;SDS011;23726;52.520;13.434;2022-08-19T11:56:07;20.42;;;15.30;;
37885;SDS011;23726;52.520;13.434;2022-08-19T11:58:34;15.88;;;14.25;;
37885;SDS011;23726;52.520;13.434;2022-08-19T12:01:00;17.33;;;13.95;;
37885;SDS011;23726;52.520;13.434;2022-08-19T12:03:26;15.35;;;13.75;;
37885;SDS011;23726;52.520;13.434;2022-08-19T12:05:52;16.65;;;14.18;;
37885;SDS011;23726;52.520;13.434;2022-08-19T12:08:18;15.48;;;13.85;;
37885;SDS011;23726;52.520;13.434;2022-08-19T12:10:44;15.43;;;13.70;;
37885;SDS011;23726;52.520;13.434;2022-08-19T12:13:13;15.52;;;13.93;;
37885;SDS011;23726;52.520;13.434;2022-08-19T12:15:43;14.80;;;13.30;;
37885;SDS011;23726;52.520;13.434;2022-08-19T12:18:10;15.60;;;13.63;;
37885;SDS011;23726;52.520;13.434;2022-08-19T12:20:37;14.27;;;12.77;;
37885;SDS011;23726;52.520;13.434;2022-08-19T12:23:05;15.68;;;13.85;;
37885;SDS011;23726;52.520;13.434;2022-08-19T12:25:32;14.52;;;12.73;;
37885;SDS011;23726;52.520;13.434;2022-08-19T12:27:59;14.88;;;13.10;;
37885;SDS011;23726;52.520;13.434;2022-08-19T12:30:25;14.32;;;12.93;;
37885;SDS011;23726;52.520;13.434;2022-08-19T12:32:52;15.13;;;12.55;;
37885;SDS011;23726;52.520;13.434;2022-08-19T12:35:18;14.70;;;13.18;;
37885;SDS011;23726;52.520;13.434;2022-08-19T12:37:45;13.60;;;12.20;;
37885;SDS011;23726;52.520;13.434;2022-08-19T12:40:11;13.82;;;11.95;;
37885;SDS011;23726;52.520;13.434;2022-08-19T12:42:38;13.85;;;12.00;;
37885;SDS011;23726;52.520;13.434;2022-08-19T12:45:10;14.82;;;12.10;;
37885;SDS011;23726;52.520;13.434;2022-08-19T12:47:37;13.25;;;11.85;;
37885;SDS011;23726;52.520;13.434;2022-08-19T12:50:04;13.95;;;11.20;;
37885;SDS011;23726;52.520;13.434;2022-08-19T12:52:33;13.63;;;12.23;;
37885;SDS011;23726;52.520;13.434;2022-08-19T12:55:01;13.18;;;11.88;;
37885;SDS011;23726;52.520;13.434;2022-08-19T12:57:28;13.40;;;12.00;;
37885;SDS011;23726;52.520;13.434;2022-08-19T12:59:54;13.30;;;12.00;;
37885;SDS011;23726;52.520;13.434;2022-08-19T13:02:19;13.73;;;12.38;;
37885;SDS011;23726;52.520;13.434;2022-08-19T13:04:48;13.75;;;11.98;;
37885;SDS011;23726;52.520;13.434;2022-08-19T13:07:14;14.52;;;12.00;;
37885;SDS011;23726;52.520;13.434;2022-08-19T13:09:39;12.98;;;11.68;;
37885;SDS011;23726;52.520;13.434;2022-08-19T13:12:07;13.63;;;12.32;;
37885;SDS011;23726;52.520;13.434;2022-08-19T13:14:37;14.52;;;13.02;;
37885;SDS011;23726;52.520;13.434;2022-08-19T13:17:06;13.55;;;12.25;;
37885;SDS011;23726;52.520;13.434;2022-08-19T13:19:33;14.82;;;13.23;;
37885;SDS011;23726;52.520;13.434;2022-08-19T13:22:01;15.15;;;13.63;;
37885;SDS011;23726;52.520;13.434;2022-08-19T13:24:27;15.82;;;14.07;;
37885;SDS011;23726;52.520;13.434;2022-08-19T13:26:52;16.00;;;14.32;;
37885;SDS011;23726;52.520;13.434;2022-08-19T13:29:18;18.25;;;13.82;;
37885;SDS011;23726;52.520;13.434;2022-08-19T13:32:02;15.10;;;13.40;;
37885;SDS011;23726;52.520;13.434;2022-08-19T13:35:00;14.68;;;13.13;;
37885;SDS011;23726;52.520;13.434;2022-08-19T13:37:26;17.60;;;13.20;;
37885;SDS011;23726;52.520;13.434;2022-08-19T13:40:07;14.38;;;12.90;;
37885;SDS011;23726;52.520;13.434;2022-08-19T13:42:40;16.33;;;14.15;;
37885;SDS011;23726;52.520;13.434;2022-08-19T13:45:06;15.98;;;14.38;;
37885;SDS011;23726;52.520;13.434;2022-08-19T13:47:33;15.18;;;13.68;;
37885;SDS011;23726;52.520;13.434;2022-08-19T13:50:00;16.05;;;13.68;;
37885;SDS011;23726;52.520;13.434;2022-08-19T13:52:27;16.00;;;14.07;;
37885;SDS011;23726;52.520;13.434;2022-08-19T13:54:53;17.42;;;14.43;;
37885;SDS011;23726;52.520;13.434;2022-08-19T13:57:19;15.68;;;14.07;;
37885;SDS011;23726;52.520;13.434;2022-08-19T13:59:44;16.08;;;14.35;;
37885;SDS011;23726;52.520;13.434;2022-08-19T14:02:10;15.65;;;14.05;;
37885;SDS011;23726;52.520;13.434;2022-08-19T14:04:36;15.15;;;13.73;;
37885;SDS011;23726;52.520;13.434;2022-08-19T14:07:02;15.13;;;13.50;;
37885;SDS011;23726;52.520;13.434;2022-08-19T14:09:28;15.27;;;13.77;;
37885;SDS011;23726;52.520;13.434;2022-08-19T14:11:54;16.27;;;13.73;;
37885;SDS011;23726;52.520;13.434;2022-08-19T14:14:20;15.35;;;13.45;;
37885;SDS011;23726;52.520;13.434;2022-08-19T14:16:46;16.45;;;14.82;;
37885;SDS011;23726;52.520;13.434;2022-08-19T14:19:12;16.10;;;14.40;;
37885;SDS011;23726;52.520;13.434;2022-08-19T14:21:37;16.73;;;14.98;;
37885;SDS011;23726;52.520;13.434;2022-08-19T14:24:04;15.90;;;14.30;;